createdAt,value
2022-09-26T00:05:21.310Z,16
2022-09-26T00:10:56.181Z,16
2022-09-26T00:16:31.503Z,16
2022-09-26T00:22:07.820Z,15.9
2022-09-26T00:27:42.571Z,15.9
2022-09-26T00:33:18.671Z,15.9
2022-09-26T00:38:53.527Z,15.9
2022-09-26T00:44:29.311Z,15.8
2022-09-26T00:50:04.153Z,15.8
2022-09-26T00:55:39.427Z,15.8
2022-09-26T01:01:14.867Z,15.8
2022-09-26T01:06:53.198Z,15.8
2022-09-26T01:12:28.478Z,15.8
2022-09-26T01:18:03.398Z,15.7
2022-09-26T01:23:38.800Z,15.7
2022-09-26T01:29:13.958Z,15.7
2022-09-26T01:34:49.828Z,15.7
2022-09-26T01:40:25.058Z,15.7
2022-09-26T01:46:01.357Z,15.7
2022-09-26T01:51:37.815Z,15.7
2022-09-26T01:57:12.938Z,15.7
2022-09-26T02:02:47.829Z,15.7
2022-09-26T02:08:23.785Z,15.7
2022-09-26T02:13:58.836Z,15.6
2022-09-26T02:19:34.712Z,15.6
2022-09-26T02:25:09.688Z,15.6
2022-09-26T02:30:44.707Z,15.5
2022-09-26T02:36:19.954Z,15.5
2022-09-26T02:41:56.034Z,15.5
2022-09-26T02:47:31.225Z,15.5
2022-09-26T02:53:07.203Z,15.4
2022-09-26T02:58:42.132Z,15.4
2022-09-26T03:04:17.115Z,15.4
2022-09-26T03:09:53.071Z,15.4
2022-09-26T03:15:28.063Z,15.4
2022-09-26T03:21:03.045Z,15.4
2022-09-26T03:26:37.914Z,15.5
2022-09-26T03:32:13.085Z,15.4
2022-09-26T03:37:50.016Z,15.4
2022-09-26T03:43:25.838Z,15.4
2022-09-26T03:49:00.990Z,15.4
2022-09-26T03:54:36.120Z,15.4
2022-09-26T04:00:11.290Z,15.4
2022-09-26T04:05:46.728Z,15.4
2022-09-26T04:11:22.331Z,15.4
2022-09-26T04:16:57.570Z,15.4
2022-09-26T04:22:33.225Z,15.4
2022-09-26T04:28:08.328Z,15.4
2022-09-26T04:33:44.200Z,15.3
2022-09-26T04:39:18.952Z,15.3
2022-09-26T04:44:54.111Z,15.3
2022-09-26T04:50:29.204Z,15.2
2022-09-26T04:56:04.212Z,15.2
2022-09-26T05:01:48.120Z,15.1
2022-09-26T05:07:24.484Z,15
2022-09-26T05:12:59.443Z,14.9
2022-09-26T05:18:34.196Z,14.9
2022-09-26T05:24:17.431Z,14.8
2022-09-26T05:30:13.215Z,14.7
2022-09-26T05:35:57.037Z,14.6
2022-09-26T05:41:32.125Z,14.6
2022-09-26T05:47:07.219Z,14.5
2022-09-26T05:52:44.116Z,14.5
2022-09-26T05:58:19.454Z,14.4
2022-09-26T06:03:54.610Z,14.4
2022-09-26T06:09:30.055Z,14.4
2022-09-26T06:15:04.716Z,13.6
2022-09-26T06:20:39.503Z,13.2
2022-09-26T06:26:15.442Z,13.2
2022-09-26T06:31:50.867Z,13.3
2022-09-26T06:37:27.303Z,13
2022-09-26T06:43:02.381Z,12.7
2022-09-26T06:48:37.386Z,12.7
2022-09-26T06:54:12.513Z,12.6
2022-09-26T06:59:47.703Z,12.6
2022-09-26T07:05:22.471Z,12.8
2022-09-26T07:11:06.386Z,13.1
2022-09-26T07:17:50.808Z,13.6
2022-09-26T07:23:25.981Z,14
2022-09-26T07:29:01.007Z,14.3
2022-09-26T07:34:36.036Z,14.7
2022-09-26T07:40:11.038Z,14.9
2022-09-26T07:45:47.526Z,15.3
2022-09-26T07:51:24.609Z,15.5
2022-09-26T07:57:02.807Z,15.7
2022-09-26T08:02:37.885Z,15.8
2022-09-26T08:08:14.425Z,16
2022-09-26T08:13:49.658Z,16.2
2022-09-26T08:19:24.546Z,16.7
2022-09-26T08:24:59.920Z,17
2022-09-26T08:30:36.011Z,17.2
2022-09-26T08:36:10.996Z,17.4
2022-09-26T08:41:46.051Z,17.5
2022-09-26T08:47:21.171Z,17.5
2022-09-26T08:52:56.407Z,17.8
2022-09-26T08:58:33.968Z,18
2022-09-26T09:04:11.279Z,18.3
2022-09-26T09:09:47.393Z,18.1
2022-09-26T09:15:25.542Z,18
2022-09-26T09:21:01.698Z,18.2
2022-09-26T09:33:46.502Z,18.8
2022-09-26T09:39:21.594Z,18.9
2022-09-26T09:44:56.972Z,19.1
2022-09-26T09:50:35.348Z,19.3
2022-09-26T09:56:13.168Z,18.8
2022-09-26T10:01:49.190Z,18.7
2022-09-26T10:07:23.952Z,19
2022-09-26T10:12:59.854Z,19.5
2022-09-26T10:18:35.034Z,19.3
2022-09-26T10:24:10.082Z,19.9
2022-09-26T10:29:45.074Z,20.1
2022-09-26T10:35:20.968Z,21.3
2022-09-26T10:40:56.222Z,21.8
2022-09-26T10:46:34.074Z,23.2
2022-09-26T10:52:21.247Z,20.7
2022-09-26T10:57:57.387Z,20.7
2022-09-26T11:03:36.320Z,21
2022-09-26T11:09:12.607Z,20.8
2022-09-26T11:14:47.565Z,20.6
2022-09-26T11:20:22.531Z,20.1
2022-09-26T11:26:03.022Z,21.5
2022-09-26T11:31:38.480Z,21.5
2022-09-26T11:37:14.853Z,21
2022-09-26T11:42:51.971Z,21.3
2022-09-26T11:48:27.327Z,20.6
2022-09-26T11:54:02.741Z,22.2
2022-09-26T11:59:37.710Z,20.8
2022-09-26T12:05:17.226Z,20.8
2022-09-26T12:10:52.327Z,21.8
2022-09-26T12:16:27.390Z,22.8
2022-09-26T12:22:04.842Z,22.3
2022-09-26T12:27:39.918Z,21.8
2022-09-26T12:33:15.108Z,21.7
2022-09-26T12:38:55.847Z,23.1
2022-09-26T12:44:32.145Z,24.3
2022-09-26T12:50:07.047Z,23.5
2022-09-26T12:55:42.155Z,23.1
2022-09-26T13:01:17.439Z,25.8
2022-09-26T13:07:14.619Z,25.6
2022-09-26T13:12:55.936Z,24.3
2022-09-26T13:18:34.593Z,24.7
2022-09-26T13:24:11.121Z,25.2
2022-09-26T13:29:47.087Z,26.9
2022-09-26T13:35:22.093Z,27.7
2022-09-26T13:40:57.433Z,28.8
2022-09-26T13:46:34.914Z,29.6
2022-09-26T13:52:11.243Z,30.9
2022-09-26T13:57:46.220Z,27.7
2022-09-26T14:03:21.629Z,25.7
2022-09-26T14:08:59.171Z,23.9
2022-09-26T14:14:34.275Z,22.6
2022-09-26T14:20:09.527Z,23.3
2022-09-26T14:25:44.457Z,22.7
2022-09-26T14:31:19.624Z,22
2022-09-26T14:40:06.043Z,21.3
2022-09-26T14:45:41.147Z,21.6
2022-09-26T14:51:16.228Z,22.6
2022-09-26T14:56:51.412Z,28.1
2022-09-26T15:02:26.761Z,27.8
2022-09-26T15:08:03.763Z,25
2022-09-26T15:13:38.872Z,24.2
2022-09-26T15:19:13.735Z,24.1
2022-09-26T15:24:48.860Z,23.7
2022-09-26T15:30:24.740Z,24.5
2022-09-26T15:36:00.319Z,23.4
2022-09-26T15:41:35.356Z,22.3
2022-09-26T15:47:11.491Z,22
2022-09-26T15:52:46.607Z,21.8
2022-09-26T15:58:21.753Z,22.8
2022-09-26T16:03:56.640Z,22.4
2022-09-26T16:09:32.931Z,20.9
2022-09-26T16:15:07.640Z,21.6
2022-09-26T16:20:42.942Z,20.9
2022-09-26T16:26:18.128Z,20.3
2022-09-26T16:31:53.549Z,20.2
2022-09-26T16:37:28.504Z,20
2022-09-26T16:43:03.338Z,19
2022-09-26T16:48:37.937Z,18.8
2022-09-26T16:54:13.985Z,18.5
2022-09-26T16:59:50.303Z,18.3
2022-09-26T17:05:25.148Z,18.4
2022-09-26T17:10:59.837Z,18.2
2022-09-26T17:16:34.557Z,18.1
2022-09-26T17:22:09.465Z,18.2
2022-09-26T17:27:44.296Z,18.2
2022-09-26T17:33:20.909Z,18.1
2022-09-26T17:38:56.840Z,18.1
2022-09-26T17:44:33.586Z,17.6
2022-09-26T17:50:13.046Z,17.1
2022-09-26T17:55:50.453Z,17
2022-09-26T18:01:27.026Z,16.7
2022-09-26T18:07:03.077Z,16.6
2022-09-26T18:12:38.160Z,16.6
2022-09-26T18:18:14.238Z,16.5
2022-09-26T18:23:48.988Z,16.5
2022-09-26T18:29:24.097Z,16.3
2022-09-26T18:34:59.210Z,16
2022-09-26T18:40:34.336Z,15.8
2022-09-26T18:46:21.032Z,15.6
2022-09-26T18:51:57.606Z,15.5
2022-09-26T18:57:33.238Z,15.2
2022-09-26T19:03:08.008Z,15.1
2022-09-26T19:08:42.911Z,15
2022-09-26T19:14:17.822Z,14.9
2022-09-26T19:19:52.715Z,15.6
2022-09-26T19:25:27.695Z,15.8
2022-09-26T19:31:02.830Z,15.9
2022-09-26T19:36:39.042Z,16
2022-09-26T19:42:14.196Z,16.1
2022-09-26T19:47:49.045Z,16.2
2022-09-26T19:53:26.626Z,16.3
2022-09-26T19:59:02.480Z,16.4
2022-09-26T20:04:37.932Z,16.5
2022-09-26T20:10:12.773Z,16.5
2022-09-26T20:15:47.617Z,16.6
2022-09-26T20:21:23.763Z,16.6
2022-09-26T20:26:59.476Z,16.7
2022-09-26T20:32:35.403Z,16.7
2022-09-26T20:38:10.392Z,16.7
2022-09-26T20:43:45.210Z,16.7
2022-09-26T20:49:19.796Z,16.7
2022-09-26T20:54:55.331Z,16.7
2022-09-26T21:00:30.096Z,16.6
2022-09-26T21:06:04.989Z,16.6
2022-09-26T21:11:39.907Z,16.6
2022-09-26T21:17:15.846Z,16.6
2022-09-26T21:22:51.376Z,16.6
2022-09-26T21:28:26.681Z,16.6
2022-09-26T21:34:01.943Z,16.6
2022-09-26T21:39:37.264Z,16.6
2022-09-26T21:45:16.758Z,16.6
2022-09-26T21:50:55.393Z,16.5
2022-09-26T21:56:33.386Z,16.5
2022-09-26T22:02:08.336Z,16.5
2022-09-26T22:07:44.094Z,16.5
2022-09-26T22:13:19.486Z,16.5
2022-09-26T22:19:06.061Z,16.5
2022-09-26T22:24:41.148Z,16.6
2022-09-26T22:30:16.079Z,16.6
2022-09-26T22:35:51.258Z,16.6
2022-09-26T22:41:26.277Z,16.6
2022-09-26T22:47:01.117Z,16.6
2022-09-26T22:52:36.038Z,16.6
2022-09-26T22:58:11.005Z,16.6
2022-09-26T23:03:49.908Z,16.6
2022-09-26T23:09:25.273Z,16.6
2022-09-26T23:14:59.979Z,16.6
2022-09-26T23:20:34.886Z,16.6
2022-09-26T23:26:09.800Z,16.6
2022-09-26T23:31:44.765Z,16.6
2022-09-26T23:37:19.553Z,16.6
2022-09-26T23:42:54.884Z,16.6
2022-09-26T23:48:29.880Z,16.6
2022-09-26T23:54:04.681Z,16.7
2022-09-26T23:59:39.466Z,16.7
